createdAt,value
2019-05-11T00:00:23.084Z,8.28
2019-05-11T00:02:56.577Z,9.20
2019-05-11T00:05:29.259Z,9.38
2019-05-11T00:08:02.655Z,9.58
2019-05-11T00:10:34.952Z,8.23
2019-05-11T00:13:08.213Z,11.35
2019-05-11T00:15:39.856Z,8.98
2019-05-11T00:18:11.549Z,6.80
2019-05-11T00:20:45.384Z,8.73
2019-05-11T00:23:17.098Z,7.15
2019-05-11T00:25:49.249Z,5.20
2019-05-11T00:28:21.221Z,8.53
2019-05-11T00:30:52.954Z,6.10
2019-05-11T00:33:24.637Z,6.65
2019-05-11T00:35:56.335Z,5.97
2019-05-11T00:38:29.280Z,7.75
2019-05-11T00:41:01.665Z,7.17
2019-05-11T00:43:33.329Z,7.30
2019-05-11T00:46:04.959Z,5.85
2019-05-11T00:48:36.599Z,7.95
2019-05-11T00:51:08.269Z,7.60
2019-05-11T00:53:39.970Z,8.33
2019-05-11T00:56:12.737Z,10.53
2019-05-11T00:58:44.419Z,8.35
2019-05-11T01:01:16.124Z,7.87
2019-05-11T01:03:47.767Z,9.90
2019-05-11T01:06:19.542Z,5.80
2019-05-11T01:08:51.296Z,7.08
2019-05-11T01:11:22.992Z,5.83
2019-05-11T01:13:54.647Z,6.28
2019-05-11T01:16:27.391Z,6.15
2019-05-11T01:19:01.379Z,12.55
2019-05-11T01:21:33.461Z,6.10
2019-05-11T01:24:05.114Z,7.42
2019-05-11T01:26:36.766Z,6.87
2019-05-11T01:29:08.477Z,7.85
2019-05-11T01:31:40.125Z,7.37
2019-05-11T01:34:11.762Z,7.40
2019-05-11T01:36:44.609Z,7.60
2019-05-11T01:39:16.456Z,6.37
2019-05-11T01:41:49.967Z,11.10
2019-05-11T01:44:24.118Z,11.25
2019-05-11T01:46:55.780Z,9.30
2019-05-11T01:49:27.413Z,7.47
2019-05-11T01:51:59.046Z,6.97
2019-05-11T01:54:30.717Z,10.65
2019-05-11T01:57:02.419Z,11.22
2019-05-11T01:59:34.184Z,8.53
2019-05-11T02:02:09.471Z,7.50
2019-05-11T02:04:41.200Z,9.73
2019-05-11T02:07:13.140Z,7.42
2019-05-11T02:09:44.842Z,8.05
2019-05-11T02:12:17.624Z,10.15
2019-05-11T02:14:52.420Z,7.47
2019-05-11T02:17:24.469Z,8.10
2019-05-11T02:19:56.168Z,9.70
2019-05-11T02:22:27.837Z,13.65
2019-05-11T02:25:01.121Z,8.50
2019-05-11T02:27:32.984Z,8.03
2019-05-11T02:30:04.794Z,10.78
2019-05-11T02:32:36.464Z,8.90
2019-05-11T02:35:08.534Z,9.85
2019-05-11T02:38:15.417Z,8.85
2019-05-11T02:40:51.765Z,9.80
2019-05-11T02:46:20.579Z,11.28
2019-05-11T02:51:37.474Z,9.03
2019-05-11T02:57:19.140Z,12.23
2019-05-11T02:59:50.805Z,11.53
2019-05-11T03:09:48.316Z,12.23
2019-05-11T03:12:19.963Z,10.38
2019-05-11T03:17:58.965Z,15.35
2019-05-11T03:20:49.231Z,11.85
2019-05-11T03:31:10.501Z,12.73
2019-05-11T03:44:54.571Z,13.93
2019-05-11T03:47:58.837Z,13.10
2019-05-11T03:57:28.911Z,14.60
2019-05-11T04:00:47.270Z,11.45
2019-05-11T04:03:30.957Z,19.55
2019-05-11T04:06:57.839Z,11.55
2019-05-11T04:09:34.178Z,21.07
2019-05-11T04:12:08.297Z,14.93
2019-05-11T04:14:48.026Z,14.98
2019-05-11T04:17:25.981Z,14.43
2019-05-11T04:20:12.813Z,16.05
2019-05-11T04:26:12.501Z,16.97
2019-05-11T04:29:27.080Z,15.90
2019-05-11T04:34:43.375Z,17.27
2019-05-11T04:37:15.137Z,19.02
2019-05-11T04:39:46.910Z,17.55
2019-05-11T04:42:18.554Z,17.62
2019-05-11T04:44:52.511Z,18.55
2019-05-11T04:47:23.639Z,17.73
2019-05-11T04:49:55.310Z,15.55
2019-05-11T04:52:26.963Z,14.58
2019-05-11T04:54:58.972Z,17.82
2019-05-11T04:57:30.709Z,13.15
2019-05-11T05:00:02.386Z,15.45
2019-05-11T05:02:34.060Z,16.90
2019-05-11T05:05:06.994Z,15.95
2019-05-11T05:07:47.744Z,16.35
2019-05-11T05:10:18.938Z,17.67
2019-05-11T05:12:51.338Z,18.45
2019-05-11T05:15:25.225Z,16.17
2019-05-11T05:17:56.868Z,15.78
2019-05-11T05:20:28.515Z,14.80
2019-05-11T05:23:00.177Z,13.80
2019-05-11T05:25:31.829Z,20.25
2019-05-11T05:28:04.028Z,23.45
2019-05-11T05:30:35.728Z,19.00
2019-05-11T05:33:07.435Z,18.25
2019-05-11T05:35:39.105Z,17.10
2019-05-11T05:38:10.845Z,15.75
2019-05-11T05:40:42.515Z,13.68
2019-05-11T05:43:26.172Z,16.97
2019-05-11T05:45:48.785Z,13.55
2019-05-11T05:48:20.463Z,14.13
2019-05-11T05:50:54.653Z,18.45
2019-05-11T05:53:26.435Z,11.73
2019-05-11T05:55:58.414Z,13.45
2019-05-11T05:58:30.060Z,13.08
2019-05-11T06:01:01.830Z,14.07
2019-05-11T06:03:36.711Z,11.28
2019-05-11T06:06:08.734Z,15.68
2019-05-11T06:08:43.132Z,13.25
2019-05-11T06:11:13.732Z,13.72
2019-05-11T06:13:45.988Z,12.18
2019-05-11T06:16:17.820Z,10.55
2019-05-11T06:18:49.945Z,15.03
2019-05-11T06:21:22.832Z,14.00
2019-05-11T06:23:55.568Z,11.53
2019-05-11T06:26:27.226Z,10.63
2019-05-11T06:28:58.914Z,14.18
2019-05-11T06:31:34.415Z,9.85
2019-05-11T06:34:06.062Z,9.88
2019-05-11T06:36:37.713Z,11.65
2019-05-11T06:39:09.565Z,11.30
2019-05-11T06:41:41.226Z,7.58
2019-05-11T06:44:12.881Z,8.98
2019-05-11T06:46:44.531Z,9.65
2019-05-11T06:49:18.300Z,11.25
2019-05-11T06:51:50.507Z,8.28
2019-05-11T06:54:22.714Z,12.20
2019-05-11T06:56:54.417Z,11.97
2019-05-11T06:59:26.097Z,18.27
2019-05-11T07:01:57.840Z,9.33
2019-05-11T07:04:29.599Z,14.25
2019-05-11T07:07:01.258Z,12.90
2019-05-11T07:09:32.975Z,12.30
2019-05-11T07:12:04.691Z,14.55
2019-05-11T07:14:36.386Z,13.03
2019-05-11T07:17:08.049Z,12.95
2019-05-11T07:19:40.129Z,13.40
2019-05-11T07:22:11.904Z,11.55
2019-05-11T07:24:43.566Z,13.68
2019-05-11T07:27:15.220Z,14.00
2019-05-11T07:29:48.516Z,10.93
2019-05-11T07:32:25.688Z,12.23
2019-05-11T07:34:54.182Z,13.70
2019-05-11T07:37:28.043Z,12.75
2019-05-11T07:40:00.019Z,13.40
2019-05-11T07:42:33.318Z,13.03
2019-05-11T07:45:05.247Z,15.40
2019-05-11T07:47:37.961Z,12.53
2019-05-11T07:50:11.089Z,13.38
2019-05-11T07:52:42.748Z,13.35
2019-05-11T07:55:18.989Z,13.38
2019-05-11T07:57:51.779Z,14.63
2019-05-11T08:00:23.608Z,17.48
2019-05-11T08:02:55.341Z,16.60
2019-05-11T08:05:29.479Z,15.93
2019-05-11T08:08:01.202Z,15.32
2019-05-11T08:10:32.979Z,13.20
2019-05-11T08:13:09.137Z,11.45
2019-05-11T08:15:42.787Z,10.43
2019-05-11T08:18:18.749Z,9.00
2019-05-11T08:20:50.659Z,11.45
2019-05-11T08:23:23.993Z,11.68
2019-05-11T08:25:58.139Z,13.75
2019-05-11T08:28:31.291Z,11.05
2019-05-11T08:31:03.075Z,10.98
2019-05-11T08:33:34.746Z,16.85
2019-05-11T08:36:08.321Z,9.55
2019-05-11T08:38:40.016Z,14.35
2019-05-11T08:41:11.789Z,11.20
2019-05-11T08:43:43.495Z,6.30
2019-05-11T08:46:15.152Z,5.25
2019-05-11T08:48:47.863Z,5.80
2019-05-11T08:51:21.109Z,5.42
2019-05-11T08:53:52.809Z,5.62
2019-05-11T08:56:24.823Z,3.72
2019-05-11T08:58:58.780Z,6.65
2019-05-11T09:01:31.347Z,3.40
2019-05-11T09:04:04.252Z,3.10
2019-05-11T09:06:37.677Z,4.30
2019-05-11T09:09:13.178Z,4.12
2019-05-11T09:11:44.920Z,4.12
2019-05-11T09:14:19.378Z,8.35
2019-05-11T09:16:51.151Z,5.33
2019-05-11T09:19:25.682Z,7.05
2019-05-11T09:21:58.791Z,6.72
2019-05-11T09:24:30.856Z,4.12
2019-05-11T09:27:03.079Z,5.08
2019-05-11T09:29:34.832Z,4.42
2019-05-11T09:32:08.673Z,6.65
2019-05-11T09:34:39.838Z,5.97
2019-05-11T09:37:11.492Z,5.60
2019-05-11T09:39:47.690Z,6.22
2019-05-11T09:42:18.959Z,5.10
2019-05-11T09:44:50.975Z,5.17
2019-05-11T09:47:22.782Z,7.22
2019-05-11T09:49:54.435Z,5.47
2019-05-11T09:52:32.370Z,8.88
2019-05-11T09:55:02.886Z,5.10
2019-05-11T09:57:34.853Z,6.55
2019-05-11T10:00:08.732Z,8.33
2019-05-11T10:02:40.598Z,7.40
2019-05-11T10:05:12.461Z,7.55
2019-05-11T10:07:44.393Z,5.55
2019-05-11T10:10:18.418Z,8.75
2019-05-11T10:12:52.665Z,5.92
2019-05-11T10:15:23.872Z,5.40
2019-05-11T10:17:55.567Z,6.42
2019-05-11T10:20:28.636Z,5.72
2019-05-11T10:23:00.771Z,5.33
2019-05-11T10:25:32.469Z,6.00
2019-05-11T10:28:04.131Z,8.90
2019-05-11T10:30:38.616Z,4.95
2019-05-11T10:33:09.284Z,5.37
2019-05-11T10:35:40.977Z,6.87
2019-05-11T10:38:14.250Z,6.37
2019-05-11T10:40:48.000Z,5.90
2019-05-11T10:43:19.970Z,6.58
2019-05-11T10:45:51.774Z,5.33
2019-05-11T10:48:23.414Z,6.55
2019-05-11T10:50:57.748Z,7.22
2019-05-11T10:53:29.500Z,5.12
2019-05-11T10:56:01.481Z,5.50
2019-05-11T10:58:33.180Z,7.85
2019-05-11T11:01:04.854Z,6.60
2019-05-11T11:03:38.431Z,8.03
2019-05-11T11:06:10.231Z,8.43
2019-05-11T11:08:42.570Z,5.85
2019-05-11T11:11:14.306Z,8.45
2019-05-11T11:13:47.984Z,7.35
2019-05-11T11:16:35.209Z,6.80
2019-05-11T11:18:53.350Z,5.17
2019-05-11T11:21:25.042Z,8.40
2019-05-11T11:23:58.746Z,5.12
2019-05-11T11:26:30.148Z,7.95
2019-05-11T11:29:01.816Z,6.65
2019-05-11T11:31:33.532Z,11.50
2019-05-11T11:34:05.191Z,6.28
2019-05-11T11:36:37.732Z,9.98
2019-05-11T11:39:09.451Z,5.30
2019-05-11T11:41:41.805Z,5.20
2019-05-11T11:44:13.498Z,8.35
2019-05-11T11:46:52.076Z,11.33
2019-05-11T11:49:19.011Z,9.50
2019-05-11T11:51:50.797Z,8.33
2019-05-11T11:54:22.485Z,9.23
2019-05-11T11:56:54.243Z,6.97
2019-05-11T11:59:28.397Z,7.55
2019-05-11T12:01:59.770Z,7.80
2019-05-11T12:04:31.454Z,7.90
2019-05-11T12:07:03.372Z,7.03
2019-05-11T12:09:37.665Z,8.60
2019-05-11T12:12:08.952Z,5.72
2019-05-11T12:14:40.789Z,7.15
2019-05-11T12:17:12.443Z,7.85
2019-05-11T12:19:44.675Z,10.65
2019-05-11T12:22:18.824Z,5.25
2019-05-11T12:24:50.836Z,9.50
2019-05-11T12:27:25.209Z,6.97
2019-05-11T12:29:58.192Z,7.47
2019-05-11T12:32:44.235Z,7.85
2019-05-11T12:35:17.850Z,7.65
2019-05-11T12:37:49.984Z,7.50
2019-05-11T12:40:21.715Z,8.45
2019-05-11T12:42:55.985Z,5.35
2019-05-11T12:45:29.579Z,8.18
2019-05-11T12:48:01.402Z,7.75
2019-05-11T12:50:33.578Z,9.00
2019-05-11T12:53:05.359Z,6.00
2019-05-11T12:55:38.090Z,5.22
2019-05-11T12:58:10.868Z,10.08
2019-05-11T13:00:43.350Z,5.70
2019-05-11T13:03:15.180Z,7.90
2019-05-11T13:05:48.397Z,5.12
2019-05-11T13:08:27.726Z,4.55
2019-05-11T13:11:02.646Z,4.42
2019-05-11T13:13:34.300Z,7.60
2019-05-11T13:16:05.981Z,6.45
2019-05-11T13:18:40.883Z,5.75
2019-05-11T13:21:12.542Z,6.95
2019-05-11T13:23:44.234Z,7.37
2019-05-11T13:26:17.807Z,6.75
2019-05-11T13:28:50.260Z,4.72
2019-05-11T13:31:21.967Z,6.05
2019-05-11T13:33:53.723Z,5.15
2019-05-11T13:36:25.404Z,5.78
2019-05-11T13:38:58.765Z,7.08
2019-05-11T13:41:34.814Z,5.83
2019-05-11T13:44:08.133Z,5.67
2019-05-11T13:46:40.020Z,5.12
2019-05-11T13:49:11.748Z,5.40
2019-05-11T13:51:43.487Z,4.90
2019-05-11T13:54:15.162Z,4.95
2019-05-11T13:56:48.390Z,4.92
2019-05-11T13:59:20.721Z,6.62
2019-05-11T14:01:52.454Z,5.03
2019-05-11T14:04:27.969Z,4.40
2019-05-11T14:06:59.170Z,7.20
2019-05-11T14:09:30.835Z,4.55
2019-05-11T14:12:02.526Z,5.95
2019-05-11T14:14:34.364Z,5.33
2019-05-11T14:17:08.114Z,5.33
2019-05-11T14:19:40.934Z,5.67
2019-05-11T14:22:12.608Z,5.67
2019-05-11T14:24:44.242Z,3.72
2019-05-11T14:27:18.072Z,3.92
2019-05-11T14:29:50.938Z,3.67
2019-05-11T14:32:22.738Z,4.25
2019-05-11T14:34:54.562Z,5.67
2019-05-11T14:37:28.576Z,3.40
2019-05-11T14:40:00.359Z,4.90
2019-05-11T14:42:32.043Z,3.67
2019-05-11T14:45:03.706Z,3.05
2019-05-11T14:47:38.621Z,4.20
2019-05-11T14:50:11.138Z,3.90
2019-05-11T14:52:42.826Z,3.65
2019-05-11T14:55:18.378Z,4.00
2019-05-11T14:57:52.429Z,3.65
2019-05-11T15:00:24.199Z,4.17
2019-05-11T15:02:58.253Z,3.70
2019-05-11T15:05:29.368Z,4.05
2019-05-11T15:08:01.240Z,3.33
2019-05-11T15:10:33.051Z,3.67
2019-05-11T15:13:05.474Z,3.85
2019-05-11T15:15:39.227Z,3.70
2019-05-11T15:18:10.959Z,4.65
2019-05-11T15:20:42.811Z,4.22
2019-05-11T15:23:18.066Z,2.87
2019-05-11T15:25:50.225Z,2.83
2019-05-11T15:28:23.057Z,3.02
2019-05-11T15:30:54.696Z,3.35
2019-05-11T15:33:27.873Z,4.85
2019-05-11T15:35:59.649Z,2.83
2019-05-11T15:38:31.350Z,3.70
2019-05-11T15:41:03.011Z,3.20
2019-05-11T15:43:35.355Z,2.95
2019-05-11T15:46:08.725Z,4.75
2019-05-11T15:48:55.854Z,4.22
2019-05-11T15:51:13.834Z,3.37
2019-05-11T15:53:47.577Z,5.03
2019-05-11T15:56:20.187Z,3.72
2019-05-11T15:58:51.829Z,3.20
2019-05-11T16:01:23.653Z,3.05
2019-05-11T16:03:58.171Z,4.42
2019-05-11T16:06:29.272Z,4.33
2019-05-11T16:09:01.619Z,3.17
2019-05-11T16:11:34.565Z,2.72
2019-05-11T16:14:08.612Z,3.15
2019-05-11T16:16:39.619Z,2.92
2019-05-11T16:19:14.998Z,4.35
2019-05-11T16:21:44.976Z,2.70
2019-05-11T16:24:16.664Z,3.62
2019-05-11T16:26:49.662Z,3.92
2019-05-11T16:29:21.719Z,2.85
2019-05-11T16:31:53.550Z,4.53
2019-05-11T16:34:27.622Z,2.85
2019-05-11T16:36:59.008Z,3.35
2019-05-11T16:39:30.682Z,3.05
2019-05-11T16:42:02.704Z,3.67
2019-05-11T16:44:34.399Z,3.30
2019-05-11T16:47:07.912Z,2.67
2019-05-11T16:49:39.458Z,2.80
2019-05-11T16:52:11.134Z,4.67
2019-05-11T16:54:42.781Z,2.58
2019-05-11T16:57:14.521Z,5.17
2019-05-11T16:59:47.944Z,2.75
2019-05-11T17:02:21.888Z,3.92
2019-05-11T17:04:53.501Z,3.77
2019-05-11T17:07:25.276Z,2.22
2019-05-11T17:09:59.465Z,3.90
2019-05-11T17:12:48.650Z,3.22
2019-05-11T17:15:25.101Z,2.20
2019-05-11T17:17:59.399Z,1.98
2019-05-11T17:20:32.461Z,3.67
2019-05-11T17:23:04.142Z,3.72
2019-05-11T17:25:37.989Z,2.52
2019-05-11T17:28:10.222Z,2.67
2019-05-11T17:30:42.273Z,3.35
2019-05-11T17:33:14.001Z,5.30
2019-05-11T17:35:47.883Z,3.80
2019-05-11T17:38:19.294Z,3.10
2019-05-11T17:40:51.551Z,2.60
2019-05-11T17:43:23.264Z,3.02
2019-05-11T17:45:58.470Z,2.10
2019-05-11T17:48:30.708Z,5.33
2019-05-11T17:51:02.442Z,13.05
2019-05-11T17:53:34.085Z,8.85
2019-05-11T17:56:05.797Z,7.62
2019-05-11T17:58:37.978Z,10.32
2019-05-11T18:01:09.849Z,11.97
2019-05-11T18:03:41.887Z,9.75
2019-05-11T18:06:13.644Z,15.43
2019-05-11T18:08:47.712Z,10.80
2019-05-11T18:11:18.808Z,14.40
2019-05-11T18:13:50.495Z,11.65
2019-05-11T18:16:24.105Z,12.78
2019-05-11T18:18:55.845Z,12.60
2019-05-11T18:21:28.115Z,15.25
2019-05-11T18:24:01.910Z,10.90
2019-05-11T18:26:33.650Z,18.27
2019-05-11T18:29:05.356Z,14.85
2019-05-11T18:31:38.331Z,14.63
2019-05-11T18:34:10.411Z,13.28
2019-05-11T18:36:43.136Z,13.00
2019-05-11T18:39:14.799Z,15.80
2019-05-11T18:41:48.371Z,15.38
2019-05-11T18:44:26.327Z,15.28
2019-05-11T18:46:59.278Z,13.50
2019-05-11T18:49:32.419Z,13.40
2019-05-11T18:52:08.270Z,11.68
2019-05-11T18:54:42.635Z,15.83
2019-05-11T18:57:14.468Z,9.28
2019-05-11T18:59:48.402Z,15.50
2019-05-11T19:02:20.230Z,13.30
2019-05-11T19:04:51.921Z,11.30
2019-05-11T19:07:24.702Z,11.05
2019-05-11T19:09:57.728Z,11.30
2019-05-11T19:12:29.519Z,11.95
2019-05-11T19:15:01.306Z,8.50
2019-05-11T19:17:34.176Z,10.03
2019-05-11T19:20:08.405Z,12.15
2019-05-11T19:22:41.870Z,10.43
2019-05-11T19:25:17.986Z,12.68
2019-05-11T19:27:50.803Z,10.53
2019-05-11T19:30:22.773Z,13.28
2019-05-11T19:32:54.466Z,8.03
2019-05-11T19:35:28.707Z,10.68
2019-05-11T19:38:00.132Z,11.57
2019-05-11T19:40:31.922Z,8.65
2019-05-11T19:43:03.641Z,11.43
2019-05-11T19:45:35.353Z,13.32
2019-05-11T19:48:09.615Z,9.60
2019-05-11T19:50:41.339Z,12.45
2019-05-11T19:53:14.612Z,12.25
2019-05-11T19:55:47.919Z,12.20
2019-05-11T19:58:20.257Z,11.48
2019-05-11T20:00:52.025Z,12.75
2019-05-11T20:03:24.591Z,18.23
2019-05-11T20:05:57.996Z,23.50
2019-05-11T20:08:30.694Z,43.87
2019-05-11T20:11:04.014Z,39.35
2019-05-11T20:13:35.733Z,22.65
2019-05-11T20:16:08.250Z,15.15
2019-05-11T20:18:41.926Z,15.15
2019-05-11T20:21:19.324Z,11.35
2019-05-11T20:23:50.038Z,9.48
2019-05-11T20:26:22.167Z,13.58
2019-05-11T20:28:54.150Z,10.88
2019-05-11T20:31:27.733Z,13.18
2019-05-11T20:33:59.534Z,10.38
2019-05-11T20:36:31.226Z,10.78
2019-05-11T20:39:08.147Z,11.63
2019-05-11T20:41:39.850Z,17.02
2019-05-11T20:44:11.499Z,15.03
2019-05-11T20:46:44.960Z,11.18
2019-05-11T20:49:16.737Z,11.45
2019-05-11T20:51:48.575Z,12.53
2019-05-11T20:54:20.228Z,13.93
2019-05-11T20:56:53.510Z,13.60
2019-05-11T20:59:25.265Z,15.78
2019-05-11T21:01:58.643Z,14.03
2019-05-11T21:04:31.655Z,15.75
2019-05-11T21:07:03.433Z,13.62
2019-05-11T21:09:35.125Z,17.05
2019-05-11T21:12:09.941Z,19.87
2019-05-11T21:14:41.812Z,12.15
2019-05-11T21:17:13.517Z,8.88
2019-05-11T21:19:45.247Z,18.07
2019-05-11T21:22:23.674Z,12.18
2019-05-11T21:24:55.584Z,13.05
2019-05-11T21:27:28.707Z,13.13
2019-05-11T21:30:00.670Z,15.35
2019-05-11T21:32:32.799Z,12.73
2019-05-11T21:35:08.506Z,19.73
2019-05-11T21:37:39.347Z,10.72
2019-05-11T21:40:11.758Z,14.03
2019-05-11T21:42:43.510Z,13.55
2019-05-11T21:45:15.226Z,14.80
2019-05-11T21:47:48.946Z,11.38
2019-05-11T21:50:21.134Z,9.30
2019-05-11T21:52:58.961Z,14.25
2019-05-11T21:55:31.259Z,11.28
2019-05-11T21:58:02.937Z,11.88
2019-05-11T22:00:34.662Z,11.55
2019-05-11T22:03:10.584Z,13.30
2019-05-11T22:05:42.922Z,11.68
2019-05-11T22:08:18.819Z,9.48
2019-05-11T22:10:50.579Z,11.63
2019-05-11T22:13:23.942Z,11.10
2019-05-11T22:15:57.625Z,9.93
2019-05-11T22:18:31.554Z,13.58
2019-05-11T22:21:12.505Z,10.23
2019-05-11T22:23:47.483Z,11.22
2019-05-11T22:26:20.706Z,10.18
2019-05-11T22:28:57.481Z,10.23
2019-05-11T22:31:29.616Z,10.10
2019-05-11T22:34:03.908Z,11.40
2019-05-11T22:36:38.527Z,11.15
2019-05-11T22:39:10.893Z,12.35
2019-05-11T22:41:42.644Z,12.65
2019-05-11T22:44:14.904Z,8.30
2019-05-11T22:46:48.834Z,12.03
2019-05-11T22:49:20.614Z,12.10
2019-05-11T22:51:52.342Z,13.18
2019-05-11T22:54:25.492Z,13.75
2019-05-11T22:56:58.656Z,11.53
2019-05-11T22:59:30.657Z,13.03
2019-05-11T23:02:02.452Z,9.45
2019-05-11T23:04:38.063Z,9.75
2019-05-11T23:07:09.449Z,15.75
2019-05-11T23:09:41.347Z,10.00
2019-05-11T23:12:14.309Z,12.18
2019-05-11T23:14:48.279Z,10.82
2019-05-11T23:17:20.375Z,12.55
2019-05-11T23:19:53.173Z,12.85
2019-05-11T23:22:57.581Z,10.15
2019-05-11T23:25:23.582Z,14.78
2019-05-11T23:27:55.309Z,12.10
2019-05-11T23:30:28.064Z,12.75
2019-05-11T23:33:00.044Z,11.63
2019-05-11T23:35:31.761Z,10.95
2019-05-11T23:38:03.967Z,11.28
2019-05-11T23:40:37.914Z,9.78
2019-05-11T23:43:10.906Z,9.50
2019-05-11T23:45:42.739Z,9.03
2019-05-11T23:48:14.654Z,10.05
2019-05-11T23:50:47.435Z,13.45
2019-05-11T23:53:25.205Z,9.38
2019-05-11T23:56:00.041Z,13.62
2019-05-11T23:58:32.175Z,12.75
